Nikita Ikaunieks

チーフスカウト - Liepaja
10 9月 2028
日曜日
処理

性格

適応力 (17) 野心 (7) 物議 (10) 忠誠心 (6) プレッシャー耐性 (19) プロ意識 (18) スポーツマンシップ (10) 気質 (1)

プロフィール

指導スタイル 民主型
ライセンス 国内A級
決断力 3
人材管理 8
モチベーション 8
規律 7
仕事満足度
100%
疲労度
0%
役職 チーフスカウト
給与 35.0K 週給
契約 14.03.2029

パフォーマンス

態度 良い
トレーニング効果
26%
選手育成
35%
怪我予防
35%
戦術実行
45%

最近の出来事

獲得候補を推薦 たった今
獲得候補を推薦 たった今
獲得候補を推薦 たった今
獲得候補を推薦 たった今
獲得候補を推薦 たった今
獲得候補を推薦 たった今
獲得候補を推薦 たった今
獲得候補を推薦 たった今

監視中

168
選手 クラブ 状態 能力 自信 視察済み 最終確認 最新投票
Enrico Delprato Parma アクティブ 149 / 149 40% 1 14.08.2028 -
Tommaso Milanese Ascoli アクティブ 137 / 123 40% 1 14.08.2028 -
Vladimirs Jurkovskis Skonto 交渉中 71 / 81 62% 1 07.08.2028 -
Aleksandrs Tarasovs Spartaks アクティブ 91 / 79 62% 1 24.07.2028 承認
Hazem Mastouri Skonto 逃した 113 / 100 62% 1 26.06.2028 承認
Raivis Savalnieks Spartaks アクティブ 89 / 94 62% 1 12.06.2028 承認
Nicolás Maturana Daugavpils 交渉中 92 / 96 62% 1 04.06.2028 承認
Bruno Belizán Metta/LU アクティブ 83 / 105 62% 1 02.06.2028 承認
Andy Rinomhota Reading アクティブ 116 / 130 40% 2 31.05.2028 -
Jay McGrath Doncaster Rovers アクティブ 107 / 103 40% 1 31.05.2028 -
Josh Neufville Bradford City アクティブ 122 / 117 40% 1 30.05.2028 -
Admir Bristrić Cambridge United アクティブ 127 / 124 40% 1 28.05.2028 -
George Hall Port Vale アクティブ 110 / 135 40% 1 28.05.2028 -
Maxim Petrov Baltika アクティブ 130 / 131 40% 1 25.05.2028 -
Stanley Mills Crewe Alexandra アクティブ 126 / 107 40% 1 25.05.2028 -
Malik Mothersille Stockport County アクティブ 132 / 111 40% 3 23.05.2028 -
Kyreece Lisbie Colchester United アクティブ 99 / 94 40% 1 23.05.2028 -
Jay Matete Milton Keynes Dons アクティブ 131 / 106 40% 1 22.05.2028 -
Declan Frith Peterborough United アクティブ 114 / 104 40% 2 20.05.2028 -
Mohamadou Kanté Crawley Town アクティブ 111 / 118 40% 1 20.05.2028 -
Reyes Cleary Bromley アクティブ 134 / 111 40% 2 19.05.2028 -
Darko Todorović Fakel アクティブ 112 / 104 40% 2 17.05.2028 -
Dale Taylor Blackpool アクティブ 128 / 105 40% 1 17.05.2028 -
Ar'jany Martha Rotherham United アクティブ 102 / 115 40% 1 16.05.2028 -
Gideon Kumar Luton Town アクティブ 112 / 120 40% 1 15.05.2028 -
Lewis Bate Stockport County アクティブ 132 / 110 40% 1 14.05.2028 -
Amankwah Forson Wycombe Wanderers アクティブ 127 / 129 40% 1 13.05.2028 -
Alessandro Arena Arezzo アクティブ 127 / 120 40% 1 08.05.2028 -
Calvin Ramsay Bristol Rovers アクティブ 129 / 117 40% 1 07.05.2028 -
Caylan Vickers Burton Albion アクティブ 130 / 106 40% 1 04.05.2028 -
Ramazan Gadjimuradov Chelyabinsk アクティブ 103 / 115 40% 1 03.05.2028 -
Denzel Hall Rotherham United アクティブ 115 / 107 40% 1 02.05.2028 -
Jack Taylor Doncaster Rovers アクティブ 142 / 144 40% 1 01.05.2028 -
Matthew Litherland Harrogate Town アクティブ 101 / 102 40% 1 01.05.2028 -
Connor Barrett Walsall アクティブ 120 / 126 40% 2 30.04.2028 -
Đorđe Pantelić Spartak Kostroma アクティブ 102 / 114 40% 2 29.04.2028 -
Johnly Yfeko Exeter City アクティブ 122 / 111 40% 1 27.04.2028 -
Charles Vernam Grimsby Town アクティブ 118 / 106 40% 1 27.04.2028 -
Stephen Humphrys Bradford City アクティブ 114 / 91 40% 1 26.04.2028 -
Kane Wilson Milton Keynes Dons アクティブ 110 / 102 40% 1 25.04.2028 -
Nesta Guinness-Walker Bradford City アクティブ 102 / 100 40% 2 24.04.2028 -
Vyacheslav Grulev Nizhniy Novgorod アクティブ 126 / 105 40% 4 23.04.2028 -
Maxime Sivis Orenburg アクティブ 110 / 119 40% 1 22.04.2028 -
Victor Torp Bristol Rovers アクティブ 147 / 120 40% 1 22.04.2028 -
Artem Mamin Doncaster Rovers アクティブ 111 / 86 40% 3 21.04.2028 -
Xavier Amaechi Plymouth Argyle アクティブ 117 / 97 40% 1 21.04.2028 -
Krasian Kolev Chernomorets アクティブ 106 / 113 40% 1 21.04.2028 -
Nathan Moriah-Welsh Mansfield Town アクティブ 114 / 106 40% 1 21.04.2028 -
Nikolay Tolstopyatov Neftekhimik アクティブ 99 / 92 40% 1 20.04.2028 -
Camillo Tavernelli Arezzo アクティブ 134 / 140 40% 1 18.04.2028 -
Eli King Gillingham アクティブ 103 / 110 40% 1 17.04.2028 -
Ben Garrity Port Vale アクティブ 125 / 108 40% 1 14.04.2028 -
Ignacio Saavedra Sochi アクティブ 122 / 133 40% 4 11.04.2028 -
Daichi Kamada Luton Town アクティブ 148 / 125 40% 1 11.04.2028 -
Matěj Jurásek Doncaster Rovers アクティブ 134 / 103 40% 1 10.04.2028 -
Leo Goglichidze Rodina アクティブ 105 / 110 40% 1 09.04.2028 -
Mikhail Ignatov Sochi アクティブ 114 / 120 40% 2 07.04.2028 -
François Kamano Sochi アクティブ 117 / 125 40% 2 07.04.2028 -
Terry Taylor Charlton Athletic アクティブ 126 / 118 40% 1 06.04.2028 -
Janis Vanins Daugavpils アクティブ 61 / 66 30% 1 / 1m 05.04.2028 -
Ethan Pye Stockport County アクティブ 114 / 120 40% 1 03.04.2028 -
Robert Mejía Orenburg アクティブ 125 / 116 40% 3 22.03.2028 -
Joshua Quarshie Exeter City アクティブ 126 / 147 40% 1 22.03.2028 -
Nader Mohammadi Spartak Kostroma アクティブ 98 / 95 40% 1 21.03.2028 -
Marcelo Alves SKA Khabarovsk アクティブ 107 / 118 40% 1 20.03.2028 -
Alan Tsaraev Arsenal Tula アクティブ 114 / 117 40% 1 19.03.2028 -
Iker Pozo Rodina アクティブ 126 / 126 40% 2 18.03.2028 -
Kyle John Port Vale アクティブ 102 / 123 40% 1 16.03.2028 -
Nathan Gassama Baltika アクティブ 124 / 121 40% 2 15.03.2028 -
Will Smallbone Crewe Alexandra アクティブ 140 / 154 40% 1 14.03.2028 -
Ruslan Baitukov Chelyabinsk アクティブ 102 / 87 40% 1 14.03.2028 -
Edgardo Fariña Nizhniy Novgorod アクティブ 114 / 127 40% 1 12.03.2028 -
Alexey Berdnikov Chelyabinsk アクティブ 107 / 92 40% 1 09.03.2028 -
Nikita Kakkoev Nizhniy Novgorod アクティブ 129 / 117 40% 1 09.03.2028 -
Odel Offiah Shrewsbury Town アクティブ 139 / 137 40% 1 07.03.2028 -
Daniil Marugin Shinnik アクティブ 105 / 104 40% 1 07.03.2028 -
Erik Brenden Ventspils アクティブ 89 / 100 62% 1 03.01.2028 承認
Genaro Rossi San Martín SJ アクティブ 117 / 104 40% 2 01.01.2028 -
Augusto Berrondo Tristán Suárez アクティブ 123 / 116 40% 3 01.01.2028 -
Ilja Zhbanov Cobresal アクティブ 90 / 94 66% 1 01.01.2028 承認
Daniel Barrea Godoy Cruz アクティブ 137 / 133 40% 1 31.12.2027 -
Bruno Leyes Godoy Cruz アクティブ 142 / 143 40% 2 30.12.2027 -
Marco Miori Alvarado アクティブ 108 / 133 40% 3 29.12.2027 -
Matija Popović Fakel アクティブ 121 / 107 40% 1 29.12.2027 -
Federico Ulayar Talleres アクティブ 111 / 104 40% 1 28.12.2027 -
Horacio Tijanovich Central Córdoba SdE アクティブ 130 / 103 40% 2 27.12.2027 -
Federico Bisanz Atlanta アクティブ 110 / 103 40% 1 27.12.2027 -
Sebastián Cocimano Nueva Chicago アクティブ 101 / 125 40% 2 26.12.2027 -
Fabricio Rojas Khazar アクティブ 127 / 126 40% 1 26.12.2027 -
Misael Tarón Ferro Carril Oeste アクティブ 105 / 114 40% 1 25.12.2027 -
Delfor Minervino Estudiantes アクティブ 128 / 105 40% 2 23.12.2027 -
Rodrigo González Mitre アクティブ 126 / 99 40% 1 23.12.2027 -
Gilson Benchimol Baltika アクティブ 109 / 105 40% 1 22.12.2027 -
Kamran Aliev SKA Khabarovsk アクティブ 109 / 100 40% 2 21.12.2027 -
Yeferson Rodallega Envigado アクティブ 121 / 115 40% 1 21.12.2027 -
José Barreto Quilmes アクティブ 104 / 94 40% 3 20.12.2027 -
Favio Cabral Mitre アクティブ 117 / 122 40% 2 20.12.2027 -
Jonathan Farías Torpedo Kutaisi アクティブ 118 / 116 40% 1 20.12.2027 -
Tobías Cervera Gimnasia y Esgrima アクティブ 114 / 139 40% 2 19.12.2027 -
Juan Mendoza Güemes アクティブ 102 / 90 40% 1 19.12.2027 -
Tomás Rojas Atlanta アクティブ 122 / 127 40% 1 19.12.2027 -
Nicolás Del Priore Tristán Suárez アクティブ 97 / 95 40% 1 18.12.2027 -
Brian Farioli Estudiantes アクティブ 104 / 134 40% 1 18.12.2027 -
Franco Camargo Gimnasia y Esgrima アクティブ 116 / 123 40% 2 17.12.2027 -
Alejo Dramisino Atlanta 交渉中 111 / 106 40% 2 17.12.2027 -
Gianluca Pugliese Güemes アクティブ 119 / 118 40% 2 16.12.2027 -
Matías Rosales Sarmiento アクティブ 105 / 99 40% 1 16.12.2027 -
Facundo Krüger Temperley アクティブ 101 / 106 40% 2 15.12.2027 -
Lautaro Gordillo Colegiales アクティブ 103 / 104 40% 1 15.12.2027 -
Gamid Agalarov Orenburg アクティブ 111 / 102 40% 1 14.12.2027 -
Lisandro Cabrera Maipú アクティブ 101 / 135 40% 3 13.12.2027 -
Gonzalo Asis Almagro アクティブ 124 / 91 40% 2 12.12.2027 -
Enzo González Defensores アクティブ 98 / 97 40% 1 12.12.2027 -
Sebastián Jaurena San Martín SJ アクティブ 119 / 133 40% 1 12.12.2027 -
Vladislav Yatskevich BATE アクティブ 112 / 93 40% 2 11.12.2027 -
Luca Franco Arsenal アクティブ 116 / 89 40% 1 11.12.2027 -
Germán Cervera Alvarado アクティブ 89 / 83 40% 1 10.12.2027 -
Pedro Souto Temperley アクティブ 108 / 136 40% 3 09.12.2027 -
Bryan Teixeira Zalgiris アクティブ 123 / 119 40% 1 09.12.2027 -
Alan Bonansea Colón アクティブ 118 / 92 40% 1 08.12.2027 -
Alexander Díaz Deportivo Riestra アクティブ 128 / 135 40% 1 08.12.2027 -
Nicolás Mosca Atlanta アクティブ 115 / 117 40% 1 06.12.2027 -
Franco Vedoya Central Norte アクティブ 104 / 122 40% 1 04.12.2027 -
José Rivas Gamboa Trujillanos アクティブ 93 / 118 40% 1 02.12.2027 -
Luighi Palmeiras アクティブ 111 / 121 40% 1 02.12.2027 -
Yeferson Rincon Atletico Venezuela アクティブ 117 / 89 40% 1 01.12.2027 -
Alexey Kashtanov Torpedo Moscow アクティブ 98 / 119 40% 1 28.11.2027 -
Rafael Moreno Atletico Venezuela アクティブ 122 / 103 40% 1 27.11.2027 -
Agustín Gallo Tristán Suárez アクティブ 106 / 120 40% 1 27.11.2027 -
Ilja Safronov Rotor アクティブ 102 / 90 40% 1 26.11.2027 -
David Veliz Güemes アクティブ 98 / 99 40% 1 26.11.2027 -
Santiago Sala Güemes アクティブ 111 / 127 40% 1 25.11.2027 -
José Balza Deportivo Tachira アクティブ 115 / 100 40% 1 25.11.2027 -
Alexandr Lomovitskiy Torpedo-BelAZ アクティブ 118 / 97 40% 1 25.11.2027 -
Omran Haydary Suduva アクティブ 105 / 102 40% 1 23.11.2027 -
Yegor Kortsov Dinamo Brest アクティブ 119 / 103 40% 3 22.11.2027 -
Guljigit Alykulov Dinamo Minsk アクティブ 103 / 103 40% 1 22.11.2027 -
Mauricio Márquez Caracas アクティブ 120 / 96 40% 1 20.11.2027 -
Gonzalo Gamarra Defensores アクティブ 103 / 114 40% 1 20.11.2027 -
Sagir Arce Saburtalo アクティブ 113 / 105 40% 1 18.11.2027 -
Ángelo Lucena Carabobo アクティブ 109 / 107 40% 1 17.11.2027 -
Raivis Gabovs Jelgava アクティブ 87 / 70 62% 1 28.06.2027 承認
Diego González Metta/LU アクティブ 90 / 73 62% 1 14.06.2027 承認
Gianluca Scremin Metta/LU アクティブ 75 / 71 62% 1 04.06.2027 承認
Jānis Grīnbergs Metta/LU アクティブ 78 / 70 62% 1 02.06.2027 承認
Raivis Rugins Jelgava アクティブ 93 / 98 62% 1 03.01.2027 承認
Rashid Magomedov Neftekhimik アクティブ 92 / 81 40% 3 31.12.2026 -
Christos Giousis Nea Salamis アクティブ 103 / 98 40% 1 31.12.2026 -
Vladimir Khubulov Dinamo Makhachkala アクティブ 97 / 102 40% 1 30.12.2026 -
Banou Cissé Real Bamako アクティブ 101 / 117 40% 1 28.12.2026 -
Vladislav Lozhkin Dinamo Brest アクティブ 92 / 103 40% 1 28.12.2026 -
Georgy Melkadze Akhmat Grozny アクティブ 118 / 115 40% 1 25.12.2026 -
Ruslan Apekov Torpedo Moscow アクティブ 112 / 97 40% 1 23.12.2026 -
Damir Céter Hamrun Spartans アクティブ 85 / 83 40% 2 20.12.2026 -
Denis M. Kovalevich Dinamo Brest アクティブ 87 / 104 40% 1 20.12.2026 -
Denzel Jubitana Neftchi アクティブ 114 / 100 40% 2 19.12.2026 -
Paolo Yrizar Chernomorets アクティブ 99 / 98 40% 1 19.12.2026 -
David Davidyan Rotor アクティブ 110 / 113 40% 1 15.12.2026 -
Alexandr Saplinov Volga アクティブ 91 / 84 40% 2 05.12.2026 -
Said Aliev Rotor アクティブ 99 / 91 40% 2 04.12.2026 -
Martin Sekulić Ural アクティブ 103 / 113 40% 1 04.12.2026 -
Yeangel Montero Naxxar Lions アクティブ 93 / 94 40% 2 03.12.2026 -
Stanislav Biblyk Chaika アクティブ 97 / 105 40% 2 01.12.2026 -
Sam Nombe Milton Keynes Dons アクティブ 110 / 101 40% 1 30.11.2026 -
Guljigit Borubaev Neman アクティブ 97 / 99 40% 1 23.11.2026 -
Mattias Männilaan Nomme Kalju アクティブ 80 / 99 40% 1 03.08.2026 -
Vladislav Chebotar Slutsk アクティブ 67 / 79 40% 1 03.08.2026 -
Franco Baldassarra Kauno Zalgiris アクティブ 111 / 124 40% 1 02.08.2026 -